createdAt,value
2022-08-08T00:02:29.989Z,27.42
2022-08-08T00:07:31.589Z,27.40
2022-08-08T00:12:56.434Z,27.34
2022-08-08T00:18:05.052Z,27.30
2022-08-08T00:23:14.747Z,27.26
2022-08-08T00:28:35.693Z,27.22
2022-08-08T00:34:17.320Z,27.14
2022-08-08T00:41:08.077Z,27.10
2022-08-08T00:45:03.635Z,27.04
2022-08-08T00:50:52.367Z,27.00
2022-08-08T00:56:41.645Z,26.95
2022-08-08T01:02:01.993Z,26.90
2022-08-08T01:07:55.403Z,26.85
2022-08-08T01:13:46.109Z,26.80
2022-08-08T01:19:52.049Z,26.77
2022-08-08T01:25:26.364Z,26.72
2022-08-08T01:32:14.643Z,26.68
2022-08-08T01:37:56.338Z,26.64
2022-08-08T01:42:55.501Z,26.60
2022-08-08T01:48:16.781Z,26.57
2022-08-08T01:55:26.482Z,26.53
2022-08-08T02:00:00.779Z,26.50
2022-08-08T02:05:04.685Z,26.47
2022-08-08T02:10:45.209Z,26.44
2022-08-08T02:16:02.456Z,26.41
2022-08-08T02:21:32.435Z,26.38
2022-08-08T02:26:47.716Z,26.35
2022-08-08T02:32:07.043Z,26.31
2022-08-08T02:37:52.905Z,26.29
2022-08-08T02:44:42.690Z,26.27
2022-08-08T02:48:56.789Z,26.24
2022-08-08T02:54:18.822Z,26.20
2022-08-08T03:00:31.131Z,26.17
2022-08-08T03:06:04.053Z,26.13
2022-08-08T03:12:01.968Z,26.10
2022-08-08T03:17:12.657Z,26.06
2022-08-08T03:22:38.409Z,26.05
2022-08-08T03:27:57.071Z,25.84
2022-08-08T03:33:58.708Z,25.55
2022-08-08T03:38:56.432Z,25.25
2022-08-08T03:44:09.723Z,24.91
2022-08-08T03:49:57.388Z,24.89
2022-08-08T03:55:01.906Z,24.87
2022-08-08T04:00:18.361Z,24.71
2022-08-08T04:05:29.198Z,24.64
2022-08-08T04:10:39.400Z,24.52
2022-08-08T04:15:55.010Z,24.43
2022-08-08T04:21:10.772Z,24.38
2022-08-08T04:26:16.056Z,24.29
2022-08-08T04:31:56.933Z,24.37
2022-08-08T04:36:43.665Z,24.39
2022-08-08T04:41:49.621Z,24.28
2022-08-08T04:46:55.748Z,24.19
2022-08-08T04:52:01.503Z,24.23
2022-08-08T04:57:07.394Z,24.25
2022-08-08T05:02:13.796Z,24.38
2022-08-08T05:07:17.911Z,24.43
2022-08-08T05:12:21.442Z,24.47
2022-08-08T05:17:53.796Z,24.53
2022-08-08T05:22:56.662Z,24.56
2022-08-08T05:28:03.643Z,24.43
2022-08-08T05:33:12.546Z,24.47
2022-08-08T05:38:30.787Z,24.31
2022-08-08T05:44:03.687Z,24.23
2022-08-08T05:49:11.003Z,24.16
2022-08-08T05:54:27.102Z,23.99
2022-08-08T05:59:59.730Z,23.95
2022-08-08T06:05:34.760Z,24.01
2022-08-08T06:10:43.304Z,23.88
2022-08-08T06:15:53.633Z,23.97
2022-08-08T06:21:32.747Z,23.99
2022-08-08T06:26:53.025Z,24.00
2022-08-08T06:32:09.803Z,24.01
2022-08-08T06:37:24.400Z,23.80
2022-08-08T06:42:37.023Z,23.74
2022-08-08T06:47:52.732Z,23.89
2022-08-08T06:53:17.036Z,24.00
2022-08-08T06:58:30.375Z,24.09
2022-08-08T07:04:36.432Z,24.22
2022-08-08T07:09:15.061Z,24.21
2022-08-08T07:14:33.838Z,24.38
2022-08-08T07:19:44.450Z,24.25
2022-08-08T07:24:53.374Z,24.15
2022-08-08T07:30:05.785Z,24.27
2022-08-08T07:35:16.474Z,24.09
2022-08-08T07:40:29.848Z,24.06
2022-08-08T07:46:05.796Z,24.09
2022-08-08T07:51:02.660Z,24.09
2022-08-08T07:56:17.384Z,24.10
2022-08-08T08:02:35.397Z,24.16
2022-08-08T08:07:08.758Z,24.13
2022-08-08T08:12:35.412Z,24.24
2022-08-08T08:17:48.469Z,24.26
2022-08-08T08:22:55.006Z,24.20
2022-08-08T08:27:59.218Z,24.31
2022-08-08T08:33:06.423Z,24.52
2022-08-08T08:38:17.599Z,24.48
2022-08-08T08:43:26.729Z,24.57
2022-08-08T08:48:32.649Z,24.67
2022-08-08T08:53:58.857Z,24.67
2022-08-08T08:59:06.252Z,24.70
2022-08-08T09:04:31.351Z,24.74
2022-08-08T09:09:55.250Z,24.82
2022-08-08T09:15:06.468Z,24.83
2022-08-08T09:21:57.639Z,24.76
2022-08-08T09:25:54.509Z,24.82
2022-08-08T09:31:12.727Z,24.93
2022-08-08T09:36:23.548Z,24.88
2022-08-08T09:42:14.077Z,24.91
2022-08-08T09:47:25.923Z,24.97
2022-08-08T09:52:56.285Z,25.06
2022-08-08T09:58:06.173Z,25.11
2022-08-08T10:03:19.967Z,25.21
2022-08-08T10:08:23.003Z,25.24
2022-08-08T10:13:35.497Z,25.27
2022-08-08T10:18:40.555Z,25.33
2022-08-08T10:23:50.820Z,25.36
2022-08-08T10:29:06.158Z,25.37
2022-08-08T10:34:18.821Z,25.35
2022-08-08T10:39:31.597Z,25.36
2022-08-08T10:44:49.373Z,25.38
2022-08-08T10:50:02.257Z,25.40
2022-08-08T10:55:08.422Z,25.52
2022-08-08T11:00:14.192Z,25.54
2022-08-08T11:05:23.108Z,25.57
2022-08-08T11:10:29.335Z,25.66
2022-08-08T11:15:32.670Z,25.70
2022-08-08T11:20:37.198Z,25.71
2022-08-08T11:25:52.238Z,25.84
2022-08-08T11:30:59.778Z,25.88
2022-08-08T11:36:05.090Z,25.91
2022-08-08T11:41:11.606Z,25.93
2022-08-08T11:46:18.437Z,25.95
2022-08-08T11:51:39.235Z,25.99
2022-08-08T11:56:43.766Z,25.99
2022-08-08T12:02:30.365Z,25.98
2022-08-08T12:07:30.252Z,25.99
2022-08-08T12:12:45.926Z,26.01
2022-08-08T12:17:51.444Z,26.02
2022-08-08T12:22:57.108Z,26.01
2022-08-08T12:28:15.660Z,26.04
2022-08-08T12:33:20.565Z,26.05
2022-08-08T12:38:31.094Z,26.06
2022-08-08T12:43:49.715Z,26.05
2022-08-08T12:54:27.601Z,26.10
2022-08-08T12:59:44.690Z,26.11
2022-08-08T13:04:51.736Z,26.11
2022-08-08T13:10:04.825Z,26.11
2022-08-08T13:15:10.628Z,26.15
2022-08-08T13:20:17.306Z,26.18
2022-08-08T13:25:23.192Z,26.20
2022-08-08T13:30:28.227Z,26.22
2022-08-08T13:35:41.182Z,26.25
2022-08-08T13:40:48.907Z,26.25
2022-08-08T13:45:54.297Z,26.27
2022-08-08T13:51:25.057Z,26.28
2022-08-08T13:56:44.755Z,26.29
2022-08-08T14:02:07.260Z,26.33
2022-08-08T14:07:13.504Z,26.36
2022-08-08T14:12:19.127Z,26.36
2022-08-08T14:17:58.088Z,26.38
2022-08-08T14:22:45.847Z,26.41
2022-08-08T14:27:59.634Z,26.44
2022-08-08T14:33:12.904Z,26.50
2022-08-08T14:38:33.885Z,26.51
2022-08-08T14:44:10.470Z,26.52
2022-08-08T14:49:20.595Z,26.54
2022-08-08T14:54:45.600Z,26.58
2022-08-08T14:59:51.441Z,26.60
2022-08-08T15:05:10.471Z,26.61
2022-08-08T15:10:16.477Z,26.66
2022-08-08T15:16:03.010Z,26.70
2022-08-08T15:20:44.591Z,26.72
2022-08-08T15:25:47.357Z,26.75
2022-08-08T15:30:51.410Z,26.82
2022-08-08T15:35:54.725Z,26.88
2022-08-08T15:41:12.794Z,26.90
2022-08-08T15:46:18.271Z,26.92
2022-08-08T15:51:32.720Z,27.00
2022-08-08T15:56:36.502Z,27.04
2022-08-08T16:01:59.738Z,27.03
2022-08-08T16:07:05.124Z,27.10
2022-08-08T16:13:14.924Z,27.14
2022-08-08T16:17:57.658Z,27.13
2022-08-08T16:22:55.109Z,27.40
2022-08-08T16:27:58.561Z,27.50
2022-08-08T16:33:02.713Z,27.71
2022-08-08T16:38:09.714Z,27.77
2022-08-08T16:43:15.580Z,27.76
2022-08-08T16:48:22.626Z,27.63
2022-08-08T16:55:22.671Z,27.67
2022-08-08T16:58:49.490Z,27.77
2022-08-08T17:03:58.694Z,27.81
2022-08-08T17:09:02.935Z,27.88
2022-08-08T17:14:05.797Z,27.83
2022-08-08T17:19:22.128Z,27.81
2022-08-08T17:24:27.699Z,27.85
2022-08-08T17:29:34.138Z,27.89
2022-08-08T17:35:52.015Z,27.91
2022-08-08T17:40:12.390Z,27.96
2022-08-08T17:45:22.325Z,27.97
2022-08-08T17:50:27.520Z,27.99
2022-08-08T17:56:06.147Z,27.97
2022-08-08T18:00:54.483Z,28.01
2022-08-08T18:06:02.809Z,28.01
2022-08-08T18:11:22.880Z,28.01
2022-08-08T18:16:27.017Z,28.02
2022-08-08T18:22:01.693Z,28.05
2022-08-08T18:27:00.761Z,28.08
2022-08-08T18:32:09.946Z,28.06
2022-08-08T18:37:33.678Z,28.07
2022-08-08T18:42:37.256Z,28.11
2022-08-08T18:47:48.333Z,28.09
2022-08-08T18:52:52.539Z,28.07
2022-08-08T18:57:55.416Z,28.04
2022-08-08T19:03:06.077Z,28.02
2022-08-08T19:08:25.899Z,28.04
2022-08-08T19:13:53.098Z,28.00
2022-08-08T19:19:02.090Z,27.98
2022-08-08T19:24:12.730Z,28.08
2022-08-08T19:29:31.265Z,28.08
2022-08-08T19:34:41.348Z,28.07
2022-08-08T19:39:46.149Z,28.07
2022-08-08T19:44:53.904Z,28.04
2022-08-08T19:50:00.649Z,28.01
2022-08-08T19:55:11.493Z,27.94
2022-08-08T20:00:29.346Z,27.93
2022-08-08T20:06:15.137Z,27.97
2022-08-08T20:10:58.273Z,27.93
2022-08-08T20:16:01.361Z,27.96
2022-08-08T20:21:04.541Z,27.99
2022-08-08T20:26:09.452Z,27.92
2022-08-08T20:31:13.932Z,27.90
2022-08-08T20:36:22.274Z,27.84
2022-08-08T20:41:26.564Z,27.88
2022-08-08T20:46:31.547Z,27.91
2022-08-08T20:51:36.451Z,27.98
2022-08-08T20:57:05.706Z,27.98
2022-08-08T21:02:06.798Z,28.01
2022-08-08T21:07:16.399Z,27.99
2022-08-08T21:12:20.734Z,27.99
2022-08-08T21:17:36.741Z,27.98
2022-08-08T21:22:39.673Z,27.96
2022-08-08T21:28:09.127Z,27.94
2022-08-08T21:33:10.815Z,27.92
2022-08-08T21:38:17.069Z,27.87
2022-08-08T21:43:22.394Z,27.84
2022-08-08T21:48:30.384Z,27.82
2022-08-08T21:54:35.309Z,27.80
2022-08-08T21:59:08.839Z,27.79
2022-08-08T22:04:12.707Z,27.85
2022-08-08T22:09:15.551Z,27.86
2022-08-08T22:14:21.583Z,27.80
2022-08-08T22:19:24.401Z,27.72
2022-08-08T22:24:31.765Z,27.66
2022-08-08T22:29:58.988Z,27.56
2022-08-08T22:34:59.982Z,27.53
2022-08-08T22:40:11.913Z,27.52
2022-08-08T22:45:21.209Z,27.47
2022-08-08T22:50:28.409Z,27.46
2022-08-08T22:55:31.782Z,27.41
2022-08-08T23:00:57.988Z,27.27
2022-08-08T23:06:02.784Z,27.09
2022-08-08T23:11:06.508Z,27.09
2022-08-08T23:16:41.960Z,27.10
2022-08-08T23:21:40.393Z,27.08
2022-08-08T23:26:43.152Z,27.03
2022-08-08T23:31:57.981Z,26.97
2022-08-08T23:37:02.615Z,26.90
2022-08-08T23:42:08.253Z,26.79
2022-08-08T23:49:05.983Z,26.64
2022-08-08T23:52:35.365Z,26.54
2022-08-08T23:57:51.772Z,26.56
